Time;durP1;ratioP1;P1;durP2;ratioP2;P2;SDS_P1;SDS_P2;PMS_P1;PMS_P2;Temp;Humidity;BMP_temperature;BMP_pressure;BME280_temperature;BME280_humidity;BME280_pressure;Samples;Min_cycle;Max_cycle;Signal;HPM_P1;HPM_P2
2022/06/06 00:01:56;;;;;;;0.90;0.80;;;;;;;17.95;100.00;98164.41;15250285;19;20022;-59
2022/06/06 00:07:02;;;;;;;1.30;0.82;;;;;;;17.92;100.00;98156.66;15278771;19;20015;-59
2022/06/06 00:12:08;;;;;;;0.80;0.80;;;;;;;17.80;100.00;98165.53;15278444;19;20027;-56
2022/06/06 00:17:16;;;;;;;0.80;0.70;;;;;;;17.79;100.00;98150.22;15278325;19;20015;-59
2022/06/06 00:22:21;;;;;;;0.73;0.68;;;;;;;17.71;100.00;98155.88;15276608;19;20011;-59
2022/06/06 00:27:26;;;;;;;0.80;0.70;;;;;;;17.68;100.00;98159.06;15267376;19;20018;-58
2022/06/06 00:37:51;;;;;;;1.00;0.60;;;;;;;17.65;100.00;98164.91;15276042;19;20043;-58
2022/06/06 00:42:56;;;;;;;1.00;0.90;;;;;;;17.55;100.00;98168.94;15275630;19;20501;-58
2022/06/06 00:48:24;;;;;;;1.10;1.00;;;;;;;17.54;100.00;98180.88;15276343;19;20342;-59
2022/06/06 00:53:36;;;;;;;0.93;0.90;;;;;;;17.47;100.00;98180.03;15277653;19;20018;-59
2022/06/06 00:58:42;;;;;;;1.15;0.80;;;;;;;17.44;100.00;98191.38;15268714;19;20027;-59
2022/06/06 01:03:51;;;;;;;1.52;0.90;;;;;;;17.41;100.00;98179.00;15278518;19;20491;-60
2022/06/06 01:08:58;;;;;;;0.70;0.70;;;;;;;17.36;100.00;98194.28;15279923;19;20365;-60
2022/06/06 01:14:04;;;;;;;2.30;0.70;;;;;;;17.29;100.00;98188.84;15277517;19;20018;-59
2022/06/06 01:19:42;;;;;;;0.60;0.60;;;;;;;17.21;100.00;98198.09;15272385;19;20382;-60
2022/06/06 01:25:04;;;;;;;1.10;0.70;;;;;;;17.17;100.00;98191.38;15282192;19;20698;-56
2022/06/06 01:30:15;;;;;;;1.05;0.70;;;;;;;17.15;100.00;98181.75;15282787;19;20018;-59
2022/06/06 01:35:26;;;;;;;0.90;0.70;;;;;;;17.12;100.00;98199.31;15290467;19;20028;-56
2022/06/06 01:40:38;;;;;;;1.10;0.55;;;;;;;17.07;100.00;98190.97;15290348;19;20775;-58
2022/06/06 01:45:48;;;;;;;;;;;;;;;17.00;100.00;98196.41;15288687;19;20040;-59
2022/06/06 01:50:53;;;;;;;0.73;0.70;;;;;;;16.92;100.00;98197.41;15292895;19;20554;-58
2022/06/06 01:55:58;;;;;;;1.27;0.90;;;;;;;16.91;100.00;98190.28;15286313;19;20378;-60
2022/06/06 02:01:06;;;;;;;0.70;0.70;;;;;;;16.90;100.00;98207.66;15282657;19;20022;-59
2022/06/06 02:06:13;;;;;;;0.75;0.65;;;;;;;16.90;100.00;98204.94;15282032;19;20673;-58
2022/06/06 02:11:18;;;;;;;1.77;0.80;;;;;;;16.88;100.00;98206.19;15290132;19;20019;-57
2022/06/06 02:16:26;;;;;;;1.95;0.90;;;;;;;16.76;100.00;98211.41;15283601;19;20380;-58
2022/06/06 02:21:31;;;;;;;1.20;0.80;;;;;;;16.64;100.00;98219.34;15285390;19;20031;-58
2022/06/06 02:26:36;;;;;;;1.00;0.70;;;;;;;16.52;100.00;98215.53;15285410;19;21209;-59
2022/06/06 02:31:44;;;;;;;1.02;0.70;;;;;;;16.42;100.00;98221.34;15287382;19;20007;-59
2022/06/06 02:36:49;;;;;;;0.98;0.80;;;;;;;16.35;100.00;98220.50;15271852;19;20019;-60
2022/06/06 02:41:54;;;;;;;0.82;0.70;;;;;;;16.31;100.00;98220.06;15284464;19;20007;-59
2022/06/06 02:47:02;;;;;;;2.70;0.70;;;;;;;16.27;100.00;98222.38;15284185;19;20015;-57
2022/06/06 02:52:08;;;;;;;0.70;0.70;;;;;;;16.28;100.00;98226.78;15284558;19;20453;-58
2022/06/06 02:57:13;;;;;;;0.88;0.80;;;;;;;16.23;100.00;98226.53;15282555;19;20022;-57
2022/06/06 03:02:20;;;;;;;1.23;0.70;;;;;;;16.23;100.00;98223.81;15282877;19;20014;-58
2022/06/06 03:07:34;;;;;;;1.38;0.70;;;;;;;16.21;100.00;98235.94;15269844;19;20039;-60
2022/06/06 03:12:58;;;;;;;0.80;0.80;;;;;;;16.09;100.00;98238.38;15283269;19;20147;-62
2022/06/06 03:23:58;;;;;;;0.98;0.70;;;;;;;15.95;100.00;98234.75;15279203;19;20376;-59
2022/06/06 03:29:20;;;;;;;1.48;0.80;;;;;;;15.90;100.00;98240.78;15285810;19;20027;-59
2022/06/06 03:34:33;;;;;;;2.50;0.90;;;;;;;15.77;100.00;98248.81;15283052;19;20863;-59
2022/06/06 03:39:47;;;;;;;0.70;0.70;;;;;;;15.62;100.00;98265.22;15271791;19;20026;-58
2022/06/06 03:45:08;;;;;;;1.05;0.70;;;;;;;15.59;100.00;98262.91;15281489;19;20057;-59
2022/06/06 03:50:26;;;;;;;2.90;0.73;;;;;;;15.51;100.00;98275.59;15284435;19;20038;-58
2022/06/06 03:55:44;;;;;;;1.60;0.70;;;;;;;15.47;100.00;98278.88;15280769;19;20279;-59
2022/06/06 04:00:49;;;;;;;1.50;0.65;;;;;;;15.40;100.00;98284.28;15281238;19;20010;-58
2022/06/06 04:05:58;;;;;;;0.80;0.77;;;;;;;15.33;100.00;98283.38;15278329;19;20018;-58
2022/06/06 04:11:20;;;;;;;1.15;0.70;;;;;;;15.33;100.00;98291.50;15271129;19;21428;-58
2022/06/06 04:16:34;;;;;;;1.50;0.68;;;;;;;15.40;100.00;98306.00;15276462;19;20028;-58
2022/06/06 04:21:51;;;;;;;0.60;0.60;;;;;;;15.50;100.00;98305.66;15279158;19;20493;-57
2022/06/06 04:27:01;;;;;;;1.00;0.57;;;;;;;15.57;100.00;98301.94;15276762;19;20018;-58
2022/06/06 04:32:17;;;;;;;0.70;0.60;;;;;;;15.65;100.00;98303.69;15279543;19;20040;-59
2022/06/06 04:43:14;;;;;;;1.27;0.60;;;;;;;15.85;100.00;98293.00;15260289;19;20034;-60
2022/06/06 04:48:23;;;;;;;0.93;0.55;;;;;;;15.94;100.00;98304.53;15281697;19;20135;-56
2022/06/06 04:53:46;;;;;;;1.17;0.57;;;;;;;16.06;100.00;98314.84;15278518;19;20464;-57
2022/06/06 04:58:56;;;;;;;2.05;0.60;;;;;;;16.17;100.00;98319.72;15284819;19;20018;-58
2022/06/06 05:04:02;;;;;;;0.95;0.68;;;;;;;16.29;100.00;98320.84;15288653;19;20047;-57
2022/06/06 05:09:28;;;;;;;0.90;0.65;;;;;;;16.42;100.00;98327.38;15295907;19;20088;-58
2022/06/06 05:14:55;;;;;;;1.30;0.80;;;;;;;16.56;100.00;98323.69;15286565;19;20015;-59
2022/06/06 05:20:23;;;;;;;0.63;0.57;;;;;;;16.70;100.00;98327.31;15289209;19;20021;-60
2022/06/06 05:25:44;;;;;;;1.30;0.60;;;;;;;16.82;100.00;98332.19;15291594;19;20023;-58
2022/06/06 05:30:57;;;;;;;0.73;0.63;;;;;;;16.90;100.00;98335.53;15295393;19;20019;-56
2022/06/06 05:36:33;;;;;;;1.85;0.80;;;;;;;17.01;100.00;98333.31;15290257;19;20907;-57
2022/06/06 05:41:53;;;;;;;2.28;0.70;;;;;;;17.15;100.00;98334.19;15289556;19;20386;-56
2022/06/06 05:52:34;;;;;;;1.02;0.70;;;;;;;17.48;100.00;98333.41;15286553;19;20018;-56
2022/06/06 05:58:02;;;;;;;0.52;0.50;;;;;;;17.58;100.00;98335.72;15285720;19;20382;-58
2022/06/06 06:03:38;;;;;;;0.70;0.70;;;;;;;17.80;100.00;98334.47;15282097;19;20019;-58
2022/06/06 06:09:10;;;;;;;2.38;0.68;;;;;;;17.91;100.00;98321.25;15286796;19;20011;-58
2022/06/06 06:20:13;;;;;;;0.60;0.60;;;;;;;17.99;100.00;98323.78;15273622;19;20014;-59
2022/06/06 06:25:20;;;;;;;1.13;0.70;;;;;;;18.08;100.00;98317.03;15283981;19;20027;-60
2022/06/06 06:30:31;;;;;;;2.47;0.75;;;;;;;18.22;100.00;98319.75;15288323;19;20010;-57
2022/06/06 06:35:52;;;;;;;0.70;0.50;;;;;;;18.29;100.00;98318.69;15283688;19;20353;-55
2022/06/06 06:41:05;;;;;;;1.50;0.70;;;;;;;18.39;100.00;98320.13;15285434;19;20039;-57
2022/06/06 06:46:15;;;;;;;1.10;0.80;;;;;;;18.54;100.00;98319.84;15283540;19;20030;-56
2022/06/06 06:51:28;;;;;;;1.37;0.90;;;;;;;18.64;100.00;98328.41;15281973;19;20134;-57
2022/06/06 06:56:51;;;;;;;1.98;0.70;;;;;;;18.73;100.00;98320.81;15277648;19;20035;-59
2022/06/06 07:13:21;;;;;;;1.27;0.70;;;;;;;19.59;100.00;98321.38;15284539;19;20015;-58
2022/06/06 07:18:31;;;;;;;0.82;0.70;;;;;;;19.64;100.00;98312.53;15285794;19;20014;-55
2022/06/06 07:23:43;;;;;;;1.38;0.70;;;;;;;19.54;100.00;98313.84;15270562;19;20027;-57
2022/06/06 07:28:49;;;;;;;2.28;0.80;;;;;;;19.61;100.00;98297.41;15279195;19;20022;-52
2022/06/06 07:34:20;;;;;;;1.30;0.80;;;;;;;19.74;100.00;98291.00;15281379;19;20039;-60
2022/06/06 07:39:35;;;;;;;;;;;;;;;19.67;100.00;98291.06;15286625;19;20018;-60
2022/06/06 07:45:04;;;;;;;2.22;0.80;;;;;;;19.90;100.00;98277.81;15279234;19;20456;-56
2022/06/06 07:50:16;;;;;;;3.58;0.80;;;;;;;20.25;100.00;98275.34;15285345;19;20032;-56
2022/06/06 07:55:31;;;;;;;0.60;0.60;;;;;;;20.33;100.00;98276.97;15277885;19;20069;-57
2022/06/06 08:00:37;;;;;;;1.20;0.70;;;;;;;20.37;100.00;98280.06;15272834;19;20043;-59
2022/06/06 08:06:08;;;;;;;1.60;0.85;;;;;;;20.48;100.00;98280.13;15279396;19;20011;-61
2022/06/06 08:11:23;;;;;;;2.72;0.65;;;;;;;20.59;100.00;98270.31;15281840;19;20010;-58
2022/06/06 08:16:36;;;;;;;2.03;0.88;;;;;;;20.76;100.00;98281.50;15278876;19;20006;-54
2022/06/06 08:21:43;;;;;;;1.45;0.68;;;;;;;20.90;100.00;98281.31;15278450;19;20014;-58
2022/06/06 08:26:54;;;;;;;0.80;0.68;;;;;;;21.05;100.00;98267.19;15275989;19;20367;-58
2022/06/06 08:31:59;;;;;;;2.58;0.50;;;;;;;21.08;100.00;98272.22;15266864;19;20574;-58
2022/06/06 08:37:28;;;;;;;0.70;0.60;;;;;;;21.17;100.00;98281.75;15286343;19;20030;-59
2022/06/06 08:42:54;;;;;;;1.58;0.80;;;;;;;21.22;100.00;98283.81;15292397;19;20014;-59
2022/06/06 08:48:02;;;;;;;1.10;0.60;;;;;;;21.21;100.00;98285.72;15288782;19;20014;-58
2022/06/06 08:53:53;;;;;;;0.50;0.50;;;;;;;21.19;100.00;98285.09;15294981;19;20014;-57
2022/06/06 08:59:27;;;;;;;0.52;0.52;;;;;;;21.03;100.00;98288.50;15299841;19;20014;-57
2022/06/06 09:05:09;;;;;;;3.70;0.73;;;;;;;21.05;100.00;98291.84;15278340;19;20002;-57
2022/06/06 09:10:44;;;;;;;2.05;0.50;;;;;;;21.43;100.00;98290.66;15295015;19;20010;-58
2022/06/06 09:16:29;;;;;;;0.65;0.52;;;;;;;21.93;100.00;98292.16;15290081;19;20026;-57
2022/06/06 09:21:58;;;;;;;0.93;0.70;;;;;;;21.99;100.00;98276.66;15293130;19;20019;-58
2022/06/06 09:27:39;;;;;;;2.38;0.50;;;;;;;22.15;100.00;98289.66;15289620;19;20018;-57
2022/06/06 09:33:28;;;;;;;0.98;0.50;;;;;;;22.02;96.85;98287.97;15277792;19;20037;-56
2022/06/06 09:39:05;;;;;;;1.17;0.50;;;;;;;21.97;100.00;98281.53;15288851;19;20620;-56
2022/06/06 09:44:25;;;;;;;2.30;0.50;;;;;;;22.06;100.00;98280.09;15283823;19;20021;-57
2022/06/06 09:50:14;;;;;;;1.00;0.60;;;;;;;22.25;100.00;98289.00;15288632;19;20393;-57
2022/06/06 10:01:28;;;;;;;0.95;0.50;;;;;;;22.45;95.27;98272.19;15288120;19;20023;-58
2022/06/06 10:07:18;;;;;;;0.60;0.60;;;;;;;22.64;92.01;98258.28;15273254;19;20412;-55
2022/06/06 10:12:47;;;;;;;0.77;0.47;;;;;;;22.83;98.58;98263.59;15284486;19;20654;-56
2022/06/06 10:18:24;;;;;;;0.70;0.50;;;;;;;22.65;84.89;98261.88;15277356;19;20022;-58
2022/06/06 10:23:53;;;;;;;0.95;0.63;;;;;;;22.86;84.42;98265.84;15282576;19;20622;-57
2022/06/06 10:30:10;;;;;;;1.95;0.60;;;;;;;22.85;83.55;98267.75;15285718;19;20019;-59
2022/06/06 10:35:16;;;;;;;0.65;0.40;;;;;;;22.92;85.54;98264.88;15280467;19;20023;-57
2022/06/06 10:40:53;;;;;;;0.40;0.40;;;;;;;22.99;79.84;98265.53;15274423;19;20047;-57
2022/06/06 10:46:03;;;;;;;2.67;0.70;;;;;;;22.85;84.10;98273.25;15280624;19;20010;-54
2022/06/06 10:51:45;;;;;;;0.85;0.63;;;;;;;22.74;80.33;98257.66;15286253;19;20480;-53
2022/06/06 10:57:29;;;;;;;2.55;0.50;;;;;;;22.96;78.76;98251.47;15275796;19;20022;-59
2022/06/06 11:03:04;;;;;;;0.70;0.50;;;;;;;23.44;75.15;98252.88;15282011;19;20011;-56
2022/06/06 11:08:53;;;;;;;0.88;0.70;;;;;;;23.54;78.82;98239.31;15279505;19;20423;-56
2022/06/06 11:14:06;;;;;;;1.15;0.57;;;;;;;23.54;75.88;98235.72;15274782;19;20050;-57
2022/06/06 11:19:50;;;;;;;2.28;0.50;;;;;;;23.16;68.65;98240.88;15283734;19;20007;-57
2022/06/06 11:25:07;;;;;;;0.90;0.52;;;;;;;23.22;71.81;98230.81;15277764;19;20043;-54
2022/06/06 11:30:28;;;;;;;0.60;0.60;;;;;;;23.58;74.33;98203.88;15281834;19;20055;-55
2022/06/06 11:35:40;;;;;;;;;;;;;;;23.81;66.38;98204.78;15277982;19;20076;-51
2022/06/06 11:41:11;;;;;;;1.88;0.75;;;;;;;23.83;65.83;98205.34;15281474;19;19927;-53
2022/06/06 11:46:53;;;;;;;0.95;0.50;;;;;;;23.93;61.23;98201.91;15269936;19;20018;-54
2022/06/06 11:52:28;;;;;;;2.28;0.52;;;;;;;24.08;64.19;98202.16;15278985;19;20006;-54
2022/06/06 11:58:16;;;;;;;0.75;0.50;;;;;;;24.14;58.90;98201.13;15276765;19;20018;-52
2022/06/06 12:04:01;;;;;;;1.20;0.50;;;;;;;24.29;59.60;98192.22;15275433;19;20025;-53
2022/06/06 12:09:29;;;;;;;1.33;0.50;;;;;;;24.37;58.63;98199.19;15270263;19;20547;-56
2022/06/06 12:15:10;;;;;;;0.88;0.50;;;;;;;24.58;58.18;98189.25;15268162;19;20464;-56
2022/06/06 12:20:40;;;;;;;1.48;0.60;;;;;;;24.62;58.73;98195.91;15280589;19;20022;-52
2022/06/06 12:31:51;;;;;;;2.65;0.55;;;;;;;24.46;60.03;98172.03;15280696;19;20351;-51
2022/06/06 12:37:02;;;;;;;0.32;0.30;;;;;;;24.28;58.60;98181.47;15275811;19;20010;-57
2022/06/06 12:42:17;;;;;;;0.77;0.50;;;;;;;23.65;56.76;98177.06;15278372;19;20010;-56
2022/06/06 12:47:56;;;;;;;0.55;0.30;;;;;;;23.23;58.15;98172.84;15264713;19;20018;-56
2022/06/06 12:53:35;;;;;;;2.63;0.70;;;;;;;21.99;83.52;98205.31;15277235;19;20500;-55
2022/06/06 12:58:46;;;;;;;1.45;0.50;;;;;;;20.35;100.00;98227.47;15278800;19;20028;-56
2022/06/06 13:04:09;;;;;;;2.15;0.60;;;;;;;19.39;100.00;98242.31;15272763;19;20047;-56
2022/06/06 13:09:33;;;;;;;1.35;0.70;;;;;;;18.93;100.00;98256.06;15275848;19;20043;-57
2022/06/06 13:15:05;;;;;;;2.38;0.80;;;;;;;18.37;100.00;98284.88;15273827;19;20039;-52
2022/06/06 13:20:37;;;;;;;1.55;0.70;;;;;;;17.91;100.00;98315.78;15272750;19;20644;-53
2022/06/06 13:25:58;;;;;;;4.25;1.10;;;;;;;17.61;100.00;98354.34;15287069;19;20606;-52
2022/06/06 13:31:26;;;;;;;0.93;0.70;;;;;;;17.19;100.00;98358.06;15292725;19;20010;-54
2022/06/06 13:36:54;;;;;;;0.70;0.70;;;;;;;16.97;100.00;98381.03;15286871;19;20010;-52
2022/06/06 13:42:08;;;;;;;0.60;0.60;;;;;;;16.69;100.00;98381.91;15290459;19;20010;-53
2022/06/06 13:47:28;;;;;;;1.05;0.50;;;;;;;16.56;100.00;98369.09;15285565;19;20523;-57
2022/06/06 13:52:51;;;;;;;2.20;0.40;;;;;;;16.56;100.00;98347.34;15276519;19;20496;-57
2022/06/06 13:58:07;;;;;;;0.40;0.40;;;;;;;16.62;100.00;98341.94;15283818;19;20015;-56
2022/06/06 14:03:41;;;;;;;0.88;0.40;;;;;;;16.79;100.00;98334.28;15286148;19;20011;-57
2022/06/06 14:08:51;;;;;;;0.60;0.40;;;;;;;16.98;100.00;98322.84;15287845;19;20385;-55
2022/06/06 14:14:00;;;;;;;0.95;0.43;;;;;;;17.19;100.00;98325.41;15285555;19;20006;-57
2022/06/06 14:19:36;;;;;;;0.40;0.40;;;;;;;17.49;100.00;98316.00;15286313;19;20018;-57
2022/06/06 14:24:55;;;;;;;1.17;0.50;;;;;;;17.72;100.00;98310.13;15269275;19;20831;-56
2022/06/06 14:30:03;;;;;;;0.20;0.20;;;;;;;18.02;100.00;98296.09;15285826;19;20018;-58
2022/06/06 14:35:34;;;;;;;2.70;0.40;;;;;;;18.33;100.00;98284.47;15283140;19;20378;-58
2022/06/06 14:40:53;;;;;;;0.57;0.30;;;;;;;19.01;100.00;98282.28;15285912;19;20014;-58
2022/06/06 14:46:02;;;;;;;0.45;0.30;;;;;;;20.21;100.00;98271.41;15280068;19;20014;-53
2022/06/06 14:51:12;;;;;;;0.43;0.30;;;;;;;20.95;100.00;98273.22;15286559;19;20031;-56
2022/06/06 14:56:33;;;;;;;0.20;0.20;;;;;;;21.46;100.00;98275.63;15271594;19;20039;-58
2022/06/06 15:01:39;;;;;;;0.20;0.20;;;;;;;21.63;100.00;98265.69;15283189;19;20018;-58
2022/06/06 15:06:52;;;;;;;1.02;0.40;;;;;;;21.54;100.00;98258.81;15283417;19;20035;-54
2022/06/06 15:11:58;;;;;;;0.95;0.30;;;;;;;22.21;100.00;98251.31;15284424;19;20387;-53
2022/06/06 15:17:06;;;;;;;0.45;0.30;;;;;;;23.12;100.00;98250.66;15280270;19;20011;-56
2022/06/06 15:22:22;;;;;;;0.40;0.30;;;;;;;23.63;100.00;98241.66;15281228;19;20089;-59
2022/06/06 15:27:43;;;;;;;1.13;0.30;;;;;;;23.91;84.28;98237.09;15271513;19;20025;-54
2022/06/06 15:32:59;;;;;;;1.80;0.20;;;;;;;23.73;96.88;98228.06;15276311;19;20039;-54
2022/06/06 15:38:27;;;;;;;1.95;0.30;;;;;;;23.80;91.38;98216.88;15278795;19;20349;-57
2022/06/06 15:43:46;;;;;;;2.13;0.30;;;;;;;23.94;86.02;98209.91;15275685;19;20136;-60
2022/06/06 15:49:08;;;;;;;0.33;0.30;;;;;;;23.49;89.60;98210.91;15280754;19;20382;-59
2022/06/06 15:54:54;;;;;;;1.33;0.40;;;;;;;23.18;82.25;98204.88;15275795;19;20014;-57
2022/06/06 16:00:19;;;;;;;0.55;0.40;;;;;;;22.94;90.90;98205.03;15263262;19;20835;-58
2022/06/06 16:05:28;;;;;;;1.65;0.40;;;;;;;22.63;88.34;98190.75;15269625;19;20023;-56
2022/06/06 16:10:42;;;;;;;0.45;0.30;;;;;;;22.28;86.45;98192.50;15277851;19;20025;-59
2022/06/06 16:16:02;;;;;;;0.88;0.50;;;;;;;22.07;100.00;98202.19;15272118;19;20022;-56
2022/06/06 16:21:13;;;;;;;0.73;0.30;;;;;;;21.63;86.44;98196.31;15279050;19;20018;-53
2022/06/06 16:26:28;;;;;;;0.50;0.28;;;;;;;21.42;81.58;98189.47;15275672;19;20015;-52
2022/06/06 16:31:35;;;;;;;0.40;0.20;;;;;;;21.29;92.50;98190.53;15271769;19;20006;-58
2022/06/06 16:37:04;;;;;;;0.57;0.30;;;;;;;21.21;96.48;98187.09;15267991;19;20394;-52
2022/06/06 16:48:01;;;;;;;1.02;0.45;;;;;;;21.15;95.37;98184.47;15251610;19;20039;-59
2022/06/06 16:53:21;;;;;;;0.93;0.30;;;;;;;20.88;93.59;98185.69;15273361;19;20010;-58
2022/06/06 16:58:45;;;;;;;1.48;0.40;;;;;;;20.73;90.44;98183.38;15292341;19;20086;-59
2022/06/06 17:04:15;;;;;;;3.08;0.45;;;;;;;20.67;99.38;98178.00;15280048;19;20014;-56
2022/06/06 17:09:31;;;;;;;0.63;0.40;;;;;;;20.66;100.00;98165.38;15285259;19;20039;-58
2022/06/06 17:14:40;;;;;;;0.85;0.30;;;;;;;20.77;100.00;98170.06;15284851;19;20382;-56
2022/06/06 17:20:23;;;;;;;0.98;0.50;;;;;;;20.88;94.06;98179.41;15289665;19;20017;-60
2022/06/06 17:25:37;;;;;;;0.75;0.40;;;;;;;21.18;95.03;98184.81;15285943;19;20019;-60
2022/06/06 17:30:54;;;;;;;1.80;0.40;;;;;;;21.60;94.20;98186.66;15293235;19;20028;-59
2022/06/06 17:36:20;;;;;;;1.75;0.40;;;;;;;21.83;86.62;98176.75;15278938;19;20021;-59
2022/06/06 17:41:28;;;;;;;0.47;0.32;;;;;;;22.14;97.74;98174.63;15288273;19;20489;-58
2022/06/06 17:46:43;;;;;;;0.75;0.40;;;;;;;22.30;77.45;98173.03;15286407;19;20014;-60
2022/06/06 17:52:00;;;;;;;0.75;0.22;;;;;;;22.44;75.56;98177.19;15287117;19;20007;-60
2022/06/06 17:57:27;;;;;;;1.88;0.38;;;;;;;22.49;80.19;98170.13;15283084;19;20359;-60
2022/06/06 18:03:06;;;;;;;0.60;0.50;;;;;;;22.54;79.00;98167.47;15287660;19;20035;-59
2022/06/06 18:08:45;;;;;;;1.35;0.40;;;;;;;22.28;77.35;98172.47;15277820;19;20029;-57
2022/06/06 18:14:05;;;;;;;0.50;0.30;;;;;;;22.22;77.37;98162.44;15279320;19;20022;-53
2022/06/06 18:19:14;;;;;;;1.10;0.47;;;;;;;22.28;84.20;98153.25;15288077;19;20002;-57
2022/06/06 18:24:27;;;;;;;0.82;0.50;;;;;;;22.16;85.04;98159.63;15284105;19;20038;-54
2022/06/06 18:29:40;;;;;;;1.17;0.40;;;;;;;21.92;91.77;98149.78;15289265;19;20014;-58
2022/06/06 18:34:56;;;;;;;1.17;0.40;;;;;;;21.50;93.08;98146.09;15284288;19;20354;-60
2022/06/06 18:40:24;;;;;;;0.73;0.43;;;;;;;21.08;100.00;98162.66;15288146;19;20035;-60
2022/06/06 18:45:32;;;;;;;0.73;0.40;;;;;;;20.57;100.00;98165.72;15273376;19;20014;-60
2022/06/06 18:50:41;;;;;;;1.05;0.40;;;;;;;20.19;100.00;98166.03;15285599;19;20054;-60
2022/06/06 18:55:56;;;;;;;1.23;0.43;;;;;;;19.92;100.00;98174.53;15282229;19;20026;-55
2022/06/06 19:01:21;;;;;;;2.35;0.40;;;;;;;19.68;100.00;98172.47;15285031;19;20018;-64
2022/06/06 19:06:34;;;;;;;0.82;0.45;;;;;;;19.62;100.00;98178.00;15276526;19;20868;-61
2022/06/06 19:11:44;;;;;;;1.73;0.50;;;;;;;19.54;100.00;98176.41;15282040;19;20058;-64
2022/06/06 19:16:51;;;;;;;0.30;0.30;;;;;;;19.29;100.00;98174.53;15270142;19;20019;-65
2022/06/06 19:21:58;;;;;;;0.50;0.40;;;;;;;18.98;100.00;98176.28;15277446;19;20623;-64
2022/06/06 19:27:11;;;;;;;0.38;0.38;;;;;;;18.81;100.00;98169.63;15281288;19;20019;-64
2022/06/06 19:32:20;;;;;;;1.92;0.40;;;;;;;18.87;100.00;98174.22;15282920;19;20013;-65
2022/06/06 19:37:32;;;;;;;0.55;0.40;;;;;;;18.86;100.00;98170.66;15282422;19;20010;-60
2022/06/06 19:42:46;;;;;;;0.70;0.45;;;;;;;18.86;100.00;98186.19;15283517;19;20433;-59
2022/06/06 19:47:56;;;;;;;0.68;0.40;;;;;;;18.76;100.00;98194.88;15267279;19;20023;-56
2022/06/06 19:53:05;;;;;;;1.10;0.50;;;;;;;18.59;100.00;98191.81;15277986;19;20031;-63
2022/06/06 19:58:14;;;;;;;1.17;0.43;;;;;;;18.34;100.00;98200.75;15277940;19;20010;-63
2022/06/06 20:03:24;;;;;;;0.98;0.50;;;;;;;18.25;100.00;98204.78;15283872;19;20007;-77
2022/06/06 20:08:31;;;;;;;0.82;0.50;;;;;;;18.16;100.00;98205.06;15285171;19;20021;-79
2022/06/06 20:13:41;;;;;;;1.02;0.50;;;;;;;18.10;100.00;98200.44;15293675;19;20015;-78
2022/06/06 20:18:46;;;;;;;1.30;0.50;;;;;;;18.06;100.00;98193.75;15325801;19;20015;-81
2022/06/06 20:23:53;;;;;;;0.98;0.50;;;;;;;18.01;100.00;98186.22;15320007;19;20022;-79
2022/06/06 20:29:14;;;;;;;0.77;0.50;;;;;;;17.82;100.00;98193.38;15301816;19;20480;-78
2022/06/06 20:34:40;;;;;;;;;;;;;;;17.73;100.00;98182.94;15319229;19;20006;-80
2022/06/06 20:39:47;;;;;;;1.52;0.70;;;;;;;17.72;100.00;98192.97;15305190;19;20638;-80
2022/06/06 20:44:58;;;;;;;2.08;0.57;;;;;;;17.69;100.00;98198.88;15309826;19;20038;-81
2022/06/06 20:50:09;;;;;;;0.40;0.40;;;;;;;17.60;100.00;98205.56;15303509;19;20010;-79
2022/06/06 20:55:21;;;;;;;0.93;0.50;;;;;;;17.49;100.00;98199.72;15297626;19;20019;-77
2022/06/06 21:00:29;;;;;;;0.90;0.57;;;;;;;17.42;100.00;98215.25;15308522;19;20490;-79
2022/06/06 21:05:43;;;;;;;0.80;0.63;;;;;;;17.31;100.00;98197.66;15314852;19;20021;-78
2022/06/06 21:10:51;;;;;;;1.75;0.60;;;;;;;17.08;100.00;98198.91;15310284;19;20010;-77
2022/06/06 21:15:58;;;;;;;0.73;0.50;;;;;;;16.98;100.00;98208.56;15311123;19;20007;-78
2022/06/06 21:21:04;;;;;;;0.98;0.55;;;;;;;16.87;100.00;98199.94;15302781;19;20006;-78
2022/06/06 21:26:12;;;;;;;0.90;0.57;;;;;;;16.88;100.00;98198.03;15300221;19;20360;-79
2022/06/06 21:31:21;;;;;;;0.95;0.60;;;;;;;16.92;100.00;98200.13;15306088;19;20050;-79
2022/06/06 21:36:26;;;;;;;2.20;0.60;;;;;;;16.94;100.00;98192.63;15310739;19;20011;-79
2022/06/06 21:41:32;;;;;;;2.05;0.50;;;;;;;16.93;100.00;98193.63;15305932;19;20010;-79
2022/06/06 21:46:40;;;;;;;1.50;0.60;;;;;;;16.89;100.00;98188.81;15307064;19;20022;-79
2022/06/06 21:51:45;;;;;;;1.00;0.60;;;;;;;16.85;100.00;98190.28;15315581;19;20015;-79
2022/06/06 21:56:52;;;;;;;0.68;0.40;;;;;;;16.84;100.00;98186.72;15335747;19;20017;-81
2022/06/06 22:02:02;;;;;;;0.57;0.50;;;;;;;16.86;100.00;98189.22;15350378;19;20023;-78
2022/06/06 22:07:08;;;;;;;0.55;0.50;;;;;;;16.77;100.00;98197.59;15302222;19;20018;-80
2022/06/06 22:12:16;;;;;;;0.70;0.65;;;;;;;16.77;100.00;98194.88;15303263;19;20025;-80
2022/06/06 22:17:25;;;;;;;1.13;0.65;;;;;;;16.58;100.00;98192.97;15300473;19;20025;-80
2022/06/06 22:22:31;;;;;;;1.27;0.70;;;;;;;16.52;100.00;98194.63;15303156;19;20018;-82
2022/06/06 22:27:36;;;;;;;0.65;0.60;;;;;;;16.56;100.00;98200.50;15299838;19;20014;-79
2022/06/06 22:32:45;;;;;;;0.80;0.47;;;;;;;16.59;100.00;98181.03;15295231;19;20022;-79
2022/06/06 22:37:50;;;;;;;0.90;0.55;;;;;;;16.58;100.00;98188.34;15304596;19;20010;-79
2022/06/06 22:42:55;;;;;;;0.60;0.60;;;;;;;16.61;100.00;98195.25;15312661;19;20018;-78
2022/06/06 22:48:09;;;;;;;0.52;0.50;;;;;;;16.63;100.00;98195.91;15308487;19;20079;-80
2022/06/06 22:53:15;;;;;;;1.15;0.52;;;;;;;16.63;100.00;98201.34;15309073;19;20029;-79
2022/06/06 22:58:20;;;;;;;0.98;0.60;;;;;;;16.57;100.00;98194.84;15303845;19;20007;-81
2022/06/06 23:03:31;;;;;;;0.98;0.52;;;;;;;16.37;100.00;98189.34;15292792;19;20007;-79
2022/06/06 23:08:36;;;;;;;1.10;0.60;;;;;;;16.27;100.00;98187.03;15311683;19;20017;-78
2022/06/06 23:13:43;;;;;;;1.70;0.70;;;;;;;16.26;100.00;98179.91;15309216;19;20015;-81
2022/06/06 23:18:52;;;;;;;0.60;0.60;;;;;;;16.23;100.00;98183.03;15308893;19;20012;-77
2022/06/06 23:23:57;;;;;;;0.73;0.70;;;;;;;16.21;100.00;98182.41;15306964;19;20032;-79
2022/06/06 23:29:04;;;;;;;1.35;0.55;;;;;;;16.19;100.00;98179.03;15311739;19;20057;-80
2022/06/06 23:34:14;;;;;;;0.80;0.60;;;;;;;16.14;100.00;98178.81;15297773;19;20074;-81
2022/06/06 23:39:23;;;;;;;1.15;0.68;;;;;;;16.12;100.00;98172.75;15297909;19;20037;-78
2022/06/06 23:49:54;;;;;;;1.00;0.65;;;;;;;16.03;100.00;98180.22;15286507;19;20504;-79
2022/06/06 23:55:00;;;;;;;0.70;0.57;;;;;;;15.98;100.00;98171.88;15292230;19;20013;-77
